ADDS METAR Data INFO
IDs: Format: Raw Decoded Include TAF

Data at: 0852 UTC 19 Jun 2018

PABE 190753Z 18009KT 10SM FEW075 11/08 A2959 RMK SLP020 T01060083 VIA AUTODIAL
PABE 190653Z 18013KT 10SM BKN070 12/09 A2957 RMK AO2 SLP013 T01170089
PABE 190553Z 19016KT 10SM FEW023 13/08 A2954 RMK SLP002 60011 T01280083 10156 20122 53024 VIA AUTODIAL
PABE 190453Z 19013KT 10SM SCT025 13/09 A2951 RMK AO2 SLP993 T01330089
PABE 190353Z 18016G22KT 10SM SCT036 15/09 A2948 RMK SLP985 T01500089 VIA AUTODIAL
PABE 190253Z 19011KT 10SM FEW025 BKN090 OVC120 15/10 A2946 RMK AO2 RAE0157 SLP978 P0000 60011 T01500100 51014
PABE 190153Z 18008KT 10SM -RA SCT024 SCT040 OVC100 14/11 A2945 RMK AO2 SLP973 P0001 T01440106
PABE 190053Z 21006KT 3SM -RA BR SCT026 BKN032 OVC045 13/11 A2944 RMK AO2 RAB08 SLP969 P0010 T01280111
PABE 182353Z 08005KT 10SM FEW027 BKN048 OVC055 16/09 A2942 RMK AO2 RAB2255E40 SLP964 P0001 60001 T01560094 10156 20106 53003
PABE 182253Z 04005KT 10SM FEW030 OVC042 14/11 A2942 RMK AO2 SLP963 T01440106
PABE 182153Z 05009KT 10SM FEW021 BKN047 OVC060 14/09 A2941 RMK AO2 SLP961 T01440094
PABE 182148Z 05010KT 10SM FEW024 BKN042 OVC050 14/09 A2941 RMK AO2
PABE 182053Z 05012G16KT 10SM SCT017 BKN024 OVC050 13/09 A2942 RMK AO2 RAB24E34 SLP962 P0000 60000 T01330094 56004
PABE 182022Z 03011KT 10SM BKN015 BKN021 OVC055 13/11 A2942 RMK AO2 T01330106
PABE 181953Z 03011KT 10SM BKN012 BKN018 OVC060 13/11 A2942 RMK AO2 RAB43E53 SLP962 P0000 T01280106
PABE 181853Z 03014KT 10SM BKN010 BKN014 OVC055 11/10 A2942 RMK AO2 RAE39 SLP962 P0000 T01110100
PABE 181824Z 03013KT 10SM -RA BKN010 OVC055 11/10 A2942 RMK AO2 P0000 T01110100
PABE 181753Z 03012KT 10SM -RA FEW009 BKN039 OVC048 11/09 A2943 RMK AO2 RAE19B35 SLP965 P0000 60003 T01060094 10106 20083 56014
PABE 181709Z 03010KT 10SM -RA FEW008 BKN038 OVC048 10/09 A2944 RMK AO2 P0000 T01000094
PABE 181653Z 03010KT 10SM -RA FEW040 OVC050 10/09 A2944 RMK SLP970 P0001 T01000094 VIA AUTODIAL
PABE 181553Z 03007KT 10SM -RA OVC050 09/09 A2945 RMK AO2 SLP974 P0001 T00940089
PABE 181453Z 04005KT 9SM -RA OVC070 09/08 A2947 RMK AO2 SLP979 P0001 60001 T00890083 56014
PABE 181353Z 05006KT 10SM -RA BKN055 OVC070 09/08 A2948 RMK RAB13 SLP982 P0000 T00890078 VIA AUTODIAL
PABE 181253Z 04006KT 10SM BKN095 08/07 A2948 RMK AO2 SLP985 T00830072
PABE 181153Z 02007KT 10SM BKN080 09/08 A2951 RMK AO2 SLP992 60000 70026 T00940083 10106 20094 58022
PABE 181053Z COR 02007KT 10SM OVC055 09/08 A2953 RMK AO2 SLP000 T00940083 TSNO
PABE 180953Z AUTO 01007KT 10SM OVC050 09/08 A2955 RMK AO2 SLP009 T00940078 TSNO
PABE 180853Z 01006KT 10SM BKN047 OVC060 09/08 A2957 RMK AO2 SLP015 60000 T00940078 401170078 58014
PABE 180753Z 02004KT 10SM OVC050 09/08 A2959 RMK AO2 RAE04 SLP021 P0000 T00940083
PABE 180653Z 01003KT 10SM -RA BKN070 OVC085 10/08 A2960 RMK AO2 SLP024 P0000 T01000083
PABE 180553Z 00000KT 10SM -RA OVC080 10/08 A2961 RMK AO2 RAB11 SLP028 P0000 60009 T01000083 10117 20100 58005
PABE 180453Z 18003KT 10SM FEW037 BKN070 OVC085 10/08 A2962 RMK RAE52 SLP031 P0005 T01000078 VIA AUTODIAL
PABE 180436Z 19004KT 8SM -RA FEW018 BKN043 OVC070 10/08 A2962 RMK AO2 P0005 T01000078
PABE 180429Z 19006KT 4SM -RA BR BKN017 BKN027 OVC036 10/08 A2962 RMK AO2 P0005 T01000083
PABE 180419Z 18009KT 2 1/2SM RA BR SCT015 BKN021 OVC038 10/08 A2963 RMK AO2 P0003 T01000083
PABE 180353Z 16004KT 10SM -RA FEW034 OVC047 11/09 A2962 RMK AO2 SLP031 P0001 T01110089
PABE 180253Z 14004KT 10SM -RA OVC055 12/08 A2963 RMK AO2 RAE14B51 SLP033 P0000 60003 T01170083 58001
PABE 180153Z 17005KT 10SM -RA OVC065 11/08 A2963 RMK SLP033 P0001 T01110083 VIA AUTODIAL
PABE 180053Z 19009KT 5SM -RA BR FEW024 BKN034 OVC045 11/08 A2963 RMK SLP035 P0002 T01060083 VIA AUTODIAL
PABE 172353Z COR 12008KT 10SM -RA SCT041 BKN055 OVC070 11/09 A2963 RMK AO2 SLP034 P0003 60014 T01110089 10111 20100 53003
PABE 172253Z 10009KT 9SM -RA FEW023 BKN038 OVC055 11/09 A2962 RMK SLP031 P0002 T01060089 VIA AUTODIAL
PABE 172218Z 10007KT 9SM -RA SCT013 BKN040 OVC047 11/08 A2962 RMK AO2 P0001 T01060083
PABE 172153Z 10007KT 9SM -RA SCT010 BKN015 OVC030 11/09 A2962 RMK AO2 SLP032 P0005 T01110094
PABE 172145Z 11009KT 4SM -RA BR SCT010 BKN014 OVC028 11/09 A2962 RMK AO2 P0005 T01060089
PABE 172125Z 12008KT 10SM -RA SCT012 BKN018 OVC041 11/09 A2962 RMK AO2 P0003 T01060089
PABE 172053Z 12008KT 10SM -RA FEW010 BKN040 OVC047 11/09 A2962 RMK AO2 SLP030 P0002 60004 T01060089 51013